sensor_id;sensor_type;location;lat;lon;timestamp;pressure;altitude;pressure_sealevel;temperature;humidity
9415;BME280;4746;35.664;139.738;2023-09-12T00:01:27;100108.13;;;36.72;40.98
9415;BME280;4746;35.664;139.738;2023-09-12T00:03:54;100100.75;;;36.66;41.22
9415;BME280;4746;35.664;139.738;2023-09-12T00:06:22;100097.38;;;36.64;41.40
9415;BME280;4746;35.664;139.738;2023-09-12T00:08:51;100100.06;;;36.64;41.47
9415;BME280;4746;35.664;139.738;2023-09-12T00:11:19;100100.91;;;36.65;40.59
9415;BME280;4746;35.664;139.738;2023-09-12T00:13:48;100101.59;;;36.67;40.64
9415;BME280;4746;35.664;139.738;2023-09-12T00:16:15;100104.13;;;36.68;40.69
9415;BME280;4746;35.664;139.738;2023-09-12T00:18:43;100100.75;;;36.66;40.12
9415;BME280;4746;35.664;139.738;2023-09-12T00:21:11;100089.13;;;36.75;40.64
9415;BME280;4746;35.664;139.738;2023-09-12T00:23:38;100094.50;;;36.83;40.11
9415;BME280;4746;35.664;139.738;2023-09-12T00:26:06;100092.22;;;36.88;39.98
9415;BME280;4746;35.664;139.738;2023-09-12T00:28:33;100096.81;;;36.95;40.20
9415;BME280;4746;35.664;139.738;2023-09-12T00:31:01;100086.00;;;37.05;39.48
9415;BME280;4746;35.664;139.738;2023-09-12T00:33:29;100091.22;;;37.14;39.48
9415;BME280;4746;35.664;139.738;2023-09-12T00:35:56;100084.81;;;37.33;39.68
9415;BME280;4746;35.664;139.738;2023-09-12T00:38:24;100090.19;;;37.41;40.38
9415;BME280;4746;35.664;139.738;2023-09-12T00:40:51;100094.41;;;37.51;39.37
9415;BME280;4746;35.664;139.738;2023-09-12T00:43:19;100084.56;;;37.52;39.89
9415;BME280;4746;35.664;139.738;2023-09-12T00:45:48;100093.75;;;37.57;39.63
9415;BME280;4746;35.664;139.738;2023-09-12T00:48:18;100090.91;;;37.58;39.11
9415;BME280;4746;35.664;139.738;2023-09-12T00:50:47;100090.91;;;37.58;39.45
9415;BME280;4746;35.664;139.738;2023-09-12T00:53:18;100095.97;;;37.61;39.59
9415;BME280;4746;35.664;139.738;2023-09-12T00:55:54;100097.66;;;37.62;39.30
9415;BME280;4746;35.664;139.738;2023-09-12T00:58:25;100085.91;;;37.55;39.27
9415;BME280;4746;35.664;139.738;2023-09-12T01:00:52;100081.00;;;37.43;39.58
9415;BME280;4746;35.664;139.738;2023-09-12T01:03:31;100079.34;;;37.50;39.73
9415;BME280;4746;35.664;139.738;2023-09-12T01:06:04;100079.22;;;37.52;39.84
9415;BME280;4746;35.664;139.738;2023-09-12T01:08:35;100076.53;;;37.52;40.07
9415;BME280;4746;35.664;139.738;2023-09-12T01:11:06;100072.84;;;37.53;39.42
9415;BME280;4746;35.664;139.738;2023-09-12T01:13:43;100081.91;;;37.59;39.44
9415;BME280;4746;35.664;139.738;2023-09-12T01:16:11;100074.88;;;37.51;39.15
9415;BME280;4746;35.664;139.738;2023-09-12T01:18:39;100070.50;;;37.50;39.00
9415;BME280;4746;35.664;139.738;2023-09-12T01:27:52;100065.63;;;37.45;36.89
9415;BME280;4746;35.664;139.738;2023-09-12T01:30:25;100061.78;;;37.48;36.09
9415;BME280;4746;35.664;139.738;2023-09-12T01:32:53;100055.78;;;37.46;35.05
9415;BME280;4746;35.664;139.738;2023-09-12T01:35:21;100055.78;;;37.46;35.24
9415;BME280;4746;35.664;139.738;2023-09-12T01:37:48;100052.09;;;37.47;35.62
9415;BME280;4746;35.664;139.738;2023-09-12T01:40:16;100050.09;;;37.49;34.98
9415;BME280;4746;35.664;139.738;2023-09-12T01:42:47;100053.13;;;37.46;35.29
9415;BME280;4746;35.664;139.738;2023-09-12T01:45:18;100056.94;;;37.43;35.26
9415;BME280;4746;35.664;139.738;2023-09-12T01:47:48;100036.03;;;37.39;35.83
9415;BME280;4746;35.664;139.738;2023-09-12T01:50:17;100039.38;;;37.33;36.25
9415;BME280;4746;35.664;139.738;2023-09-12T01:52:47;100037.00;;;37.30;36.51
9415;BME280;4746;35.664;139.738;2023-09-12T01:55:16;100035.19;;;37.30;36.44
9415;BME280;4746;35.664;139.738;2023-09-12T01:57:44;100041.53;;;37.29;36.61
9415;BME280;4746;35.664;139.738;2023-09-12T02:00:13;100034.31;;;37.30;37.12
9415;BME280;4746;35.664;139.738;2023-09-12T02:02:41;100029.97;;;37.29;36.75
9415;BME280;4746;35.664;139.738;2023-09-12T02:07:38;100024.69;;;37.45;37.52
9415;BME280;4746;35.664;139.738;2023-09-12T02:10:07;100024.03;;;37.51;37.22
9415;BME280;4746;35.664;139.738;2023-09-12T02:12:34;100033.22;;;37.56;37.19
9415;BME280;4746;35.664;139.738;2023-09-12T02:15:02;100027.03;;;37.63;37.65
9415;BME280;4746;35.664;139.738;2023-09-12T02:17:30;100027.25;;;37.70;37.82
9415;BME280;4746;35.664;139.738;2023-09-12T02:19:57;100020.41;;;37.75;37.72
9415;BME280;4746;35.664;139.738;2023-09-12T02:22:25;100017.72;;;37.75;38.06
9415;BME280;4746;35.664;139.738;2023-09-12T02:24:52;100016.06;;;37.82;37.88
9415;BME280;4746;35.664;139.738;2023-09-12T02:27:20;100012.56;;;37.90;37.68
9415;BME280;4746;35.664;139.738;2023-09-12T02:29:49;100024.97;;;37.99;37.54
9415;BME280;4746;35.664;139.738;2023-09-12T02:32:16;100014.41;;;38.05;37.47
9415;BME280;4746;35.664;139.738;2023-09-12T02:34:45;100009.41;;;38.10;37.09
9415;BME280;4746;35.664;139.738;2023-09-12T02:37:13;100018.44;;;38.17;37.20
9415;BME280;4746;35.664;139.738;2023-09-12T02:39:44;100018.28;;;38.27;36.26
9415;BME280;4746;35.664;139.738;2023-09-12T02:42:11;100014.44;;;38.37;37.04
9415;BME280;4746;35.664;139.738;2023-09-12T02:44:39;100012.38;;;38.55;36.78
9415;BME280;4746;35.664;139.738;2023-09-12T02:47:06;100012.69;;;38.76;36.64
9415;BME280;4746;35.664;139.738;2023-09-12T02:49:34;100008.78;;;38.94;35.78
9415;BME280;4746;35.664;139.738;2023-09-12T02:52:01;100008.91;;;39.00;36.68
9415;BME280;4746;35.664;139.738;2023-09-12T02:54:29;100001.50;;;39.10;36.11
9415;BME280;4746;35.664;139.738;2023-09-12T02:56:56;99996.69;;;39.06;36.56
9415;BME280;4746;35.664;139.738;2023-09-12T02:59:24;99986.69;;;39.22;36.17
9415;BME280;4746;35.664;139.738;2023-09-12T03:01:51;99987.78;;;39.13;37.20
9415;BME280;4746;35.664;139.738;2023-09-12T03:04:19;99992.47;;;39.11;37.54
9415;BME280;4746;35.664;139.738;2023-09-12T03:06:46;99989.78;;;39.11;37.74
9415;BME280;4746;35.664;139.738;2023-09-12T03:09:14;99987.56;;;39.23;37.39
9415;BME280;4746;35.664;139.738;2023-09-12T03:11:43;99987.63;;;39.37;36.70
9415;BME280;4746;35.664;139.738;2023-09-12T03:14:11;99981.19;;;39.54;36.79
9415;BME280;4746;35.664;139.738;2023-09-12T03:16:38;99975.81;;;39.76;36.11
9415;BME280;4746;35.664;139.738;2023-09-12T03:19:06;99980.72;;;39.95;35.41
9415;BME280;4746;35.664;139.738;2023-09-12T03:21:34;99975.59;;;40.23;35.08
9415;BME280;4746;35.664;139.738;2023-09-12T03:24:01;99970.88;;;40.25;35.30
9415;BME280;4746;35.664;139.738;2023-09-12T03:26:29;99970.06;;;40.39;35.44
9415;BME280;4746;35.664;139.738;2023-09-12T03:28:56;99960.84;;;40.41;35.18
9415;BME280;4746;35.664;139.738;2023-09-12T03:31:24;99957.41;;;40.61;34.63
9415;BME280;4746;35.664;139.738;2023-09-12T03:33:52;99963.72;;;40.83;34.85
9415;BME280;4746;35.664;139.738;2023-09-12T03:36:20;99963.59;;;41.20;33.64
9415;BME280;4746;35.664;139.738;2023-09-12T03:38:47;99964.72;;;41.25;32.97
9415;BME280;4746;35.664;139.738;2023-09-12T03:41:15;99972.91;;;41.38;32.72
9415;BME280;4746;35.664;139.738;2023-09-12T03:43:42;99958.59;;;41.52;32.44
9415;BME280;4746;35.664;139.738;2023-09-12T03:46:10;99973.34;;;41.77;31.82
9415;BME280;4746;35.664;139.738;2023-09-12T03:48:37;99964.28;;;41.84;32.15
9415;BME280;4746;35.664;139.738;2023-09-12T03:51:05;99967.34;;;41.96;31.92
9415;BME280;4746;35.664;139.738;2023-09-12T03:53:32;99961.31;;;41.94;31.53
9415;BME280;4746;35.664;139.738;2023-09-12T03:56:00;99952.81;;;41.96;31.83
9415;BME280;4746;35.664;139.738;2023-09-12T03:58:27;99958.50;;;42.01;31.48
9415;BME280;4746;35.664;139.738;2023-09-12T04:00:56;99955.78;;;42.01;31.70
9415;BME280;4746;35.664;139.738;2023-09-12T04:03:24;99948.22;;;41.91;31.51
9415;BME280;4746;35.664;139.738;2023-09-12T04:05:51;99937.75;;;42.02;31.38
9415;BME280;4746;35.664;139.738;2023-09-12T04:08:19;99947.41;;;42.17;30.66
9415;BME280;4746;35.664;139.738;2023-09-12T04:10:46;99941.50;;;42.28;30.13
9415;BME280;4746;35.664;139.738;2023-09-12T04:13:14;99942.69;;;42.26;30.31
9415;BME280;4746;35.664;139.738;2023-09-12T04:15:41;99936.63;;;42.17;30.46
9415;BME280;4746;35.664;139.738;2023-09-12T04:18:09;99938.75;;;42.22;30.93
9415;BME280;4746;35.664;139.738;2023-09-12T04:20:36;99930.22;;;42.18;30.24
9415;BME280;4746;35.664;139.738;2023-09-12T04:23:04;99927.41;;;42.05;30.67
9415;BME280;4746;35.664;139.738;2023-09-12T04:25:32;99939.50;;;41.89;31.42
9415;BME280;4746;35.664;139.738;2023-09-12T04:28:00;99935.44;;;41.99;30.91
9415;BME280;4746;35.664;139.738;2023-09-12T04:30:29;99928.78;;;41.95;31.09
9415;BME280;4746;35.664;139.738;2023-09-12T04:32:56;99928.56;;;41.96;31.00
9415;BME280;4746;35.664;139.738;2023-09-12T04:35:24;99928.06;;;42.07;30.51
9415;BME280;4746;35.664;139.738;2023-09-12T04:37:52;99926.78;;;42.03;30.55
9415;BME280;4746;35.664;139.738;2023-09-12T04:40:19;99921.28;;;42.18;30.62
9415;BME280;4746;35.664;139.738;2023-09-12T04:42:47;99915.38;;;42.29;30.03
9415;BME280;4746;35.664;139.738;2023-09-12T04:45:15;99911.94;;;42.41;30.16
9415;BME280;4746;35.664;139.738;2023-09-12T04:47:42;99909.69;;;42.45;29.85
9415;BME280;4746;35.664;139.738;2023-09-12T04:50:10;99904.31;;;42.51;29.19
9415;BME280;4746;35.664;139.738;2023-09-12T04:52:38;99911.81;;;42.62;29.37
9415;BME280;4746;35.664;139.738;2023-09-12T04:55:06;99892.81;;;42.70;28.94
9415;BME280;4746;35.664;139.738;2023-09-12T04:57:34;99904.16;;;42.66;29.74
9415;BME280;4746;35.664;139.738;2023-09-12T05:00:04;99898.94;;;42.98;28.79
9415;BME280;4746;35.664;139.738;2023-09-12T05:02:32;99900.78;;;43.76;28.52
9415;BME280;4746;35.664;139.738;2023-09-12T05:04:59;99895.56;;;44.33;27.70
9415;BME280;4746;35.664;139.738;2023-09-12T05:07:27;99893.28;;;44.30;27.48
9415;BME280;4746;35.664;139.738;2023-09-12T05:09:54;99891.97;;;44.45;27.16
9415;BME280;4746;35.664;139.738;2023-09-12T05:12:22;99881.34;;;44.50;26.92
9415;BME280;4746;35.664;139.738;2023-09-12T05:14:50;99891.34;;;44.50;26.96
9415;BME280;4746;35.664;139.738;2023-09-12T05:17:17;99879.72;;;44.43;27.17
9415;BME280;4746;35.664;139.738;2023-09-12T05:19:45;99878.63;;;44.63;26.74
9415;BME280;4746;35.664;139.738;2023-09-12T05:22:12;99870.66;;;45.80;25.56
9415;BME280;4746;35.664;139.738;2023-09-12T05:24:40;99869.06;;;48.08;23.28
9415;BME280;4746;35.664;139.738;2023-09-12T05:27:07;99871.91;;;50.08;20.88
9415;BME280;4746;35.664;139.738;2023-09-12T05:29:35;99868.25;;;51.31;19.89
9415;BME280;4746;35.664;139.738;2023-09-12T05:32:05;99864.44;;;52.40;19.77
9415;BME280;4746;35.664;139.738;2023-09-12T05:34:33;99870.78;;;53.27;18.45
9415;BME280;4746;35.664;139.738;2023-09-12T05:37:00;99862.03;;;53.99;18.11
9415;BME280;4746;35.664;139.738;2023-09-12T05:39:28;99858.09;;;54.40;17.33
9415;BME280;4746;35.664;139.738;2023-09-12T05:41:55;99855.69;;;54.82;17.13
9415;BME280;4746;35.664;139.738;2023-09-12T05:44:23;99862.53;;;55.33;16.58
9415;BME280;4746;35.664;139.738;2023-09-12T05:46:50;99854.03;;;55.62;16.03
9415;BME280;4746;35.664;139.738;2023-09-12T05:49:18;99847.38;;;55.68;16.03
9415;BME280;4746;35.664;139.738;2023-09-12T05:51:45;99835.38;;;55.54;15.89
9415;BME280;4746;35.664;139.738;2023-09-12T05:54:13;99836.69;;;56.18;15.23
9415;BME280;4746;35.664;139.738;2023-09-12T05:56:41;99837.75;;;56.83;15.15
9415;BME280;4746;35.664;139.738;2023-09-12T05:59:09;99833.06;;;57.20;14.43
9415;BME280;4746;35.664;139.738;2023-09-12T06:01:36;99831.63;;;57.41;14.38
9415;BME280;4746;35.664;139.738;2023-09-12T06:04:04;99831.94;;;57.71;14.30
9415;BME280;4746;35.664;139.738;2023-09-12T06:06:32;99822.59;;;58.26;13.79
9415;BME280;4746;35.664;139.738;2023-09-12T06:08:59;99827.34;;;58.74;13.73
9415;BME280;4746;35.664;139.738;2023-09-12T06:11:27;99822.69;;;59.18;13.10
9415;BME280;4746;35.664;139.738;2023-09-12T06:13:54;99820.94;;;59.44;13.22
9415;BME280;4746;35.664;139.738;2023-09-12T06:16:22;99823.69;;;59.66;12.93
9415;BME280;4746;35.664;139.738;2023-09-12T06:18:49;99825.81;;;59.69;13.17
9415;BME280;4746;35.664;139.738;2023-09-12T06:21:17;99812.44;;;59.62;12.80
9415;BME280;4746;35.664;139.738;2023-09-12T06:23:44;99817.72;;;59.50;12.89
9415;BME280;4746;35.664;139.738;2023-09-12T06:26:12;99820.84;;;59.35;13.00
9415;BME280;4746;35.664;139.738;2023-09-12T06:28:41;99827.41;;;59.39;13.28
9415;BME280;4746;35.664;139.738;2023-09-12T06:31:09;99833.00;;;59.48;12.73
9415;BME280;4746;35.664;139.738;2023-09-12T06:33:38;99828.72;;;59.42;13.11
9415;BME280;4746;35.664;139.738;2023-09-12T06:36:06;99830.06;;;59.75;13.02
9415;BME280;4746;35.664;139.738;2023-09-12T06:38:33;99828.72;;;60.02;12.67
9415;BME280;4746;35.664;139.738;2023-09-12T06:41:01;99812.28;;;60.06;12.75
9415;BME280;4746;35.664;139.738;2023-09-12T06:43:33;99826.78;;;59.94;12.72
9415;BME280;4746;35.664;139.738;2023-09-12T06:46:00;99813.09;;;59.98;12.37
9415;BME280;4746;35.664;139.738;2023-09-12T06:48:28;99820.41;;;59.94;12.56
9415;BME280;4746;35.664;139.738;2023-09-12T06:50:55;99810.69;;;59.75;12.55
9415;BME280;4746;35.664;139.738;2023-09-12T06:53:23;99808.41;;;59.77;12.62
9415;BME280;4746;35.664;139.738;2023-09-12T06:55:50;99820.91;;;59.66;12.86
9415;BME280;4746;35.664;139.738;2023-09-12T06:58:18;99821.94;;;59.48;12.66
9415;BME280;4746;35.664;139.738;2023-09-12T07:00:45;99817.72;;;59.50;12.77
9415;BME280;4746;35.664;139.738;2023-09-12T07:03:13;99818.00;;;58.83;13.09
9415;BME280;4746;35.664;139.738;2023-09-12T07:05:42;99825.56;;;57.25;14.66
9415;BME280;4746;35.664;139.738;2023-09-12T07:08:11;99820.59;;;57.22;14.38
9415;BME280;4746;35.664;139.738;2023-09-12T07:10:44;99816.50;;;57.38;14.66
9415;BME280;4746;35.664;139.738;2023-09-12T07:13:12;99813.13;;;57.41;14.24
9415;BME280;4746;35.664;139.738;2023-09-12T07:15:40;99814.75;;;57.29;14.37
9415;BME280;4746;35.664;139.738;2023-09-12T07:18:08;99810.34;;;57.60;14.02
9415;BME280;4746;35.664;139.738;2023-09-12T07:20:35;99817.09;;;57.80;14.10
9415;BME280;4746;35.664;139.738;2023-09-12T07:23:05;99822.03;;;57.20;14.37
9415;BME280;4746;35.664;139.738;2023-09-12T07:25:40;99810.47;;;56.21;15.13
9415;BME280;4746;35.664;139.738;2023-09-12T07:28:09;99812.28;;;55.84;15.11
9415;BME280;4746;35.664;139.738;2023-09-12T07:30:36;99801.63;;;56.01;15.29
9415;BME280;4746;35.664;139.738;2023-09-12T07:33:05;99817.81;;;56.07;15.21
9415;BME280;4746;35.664;139.738;2023-09-12T07:35:32;99813.94;;;56.08;15.34
9415;BME280;4746;35.664;139.738;2023-09-12T07:38:00;99827.72;;;56.08;15.39
9415;BME280;4746;35.664;139.738;2023-09-12T07:40:28;99824.22;;;55.98;15.35
9415;BME280;4746;35.664;139.738;2023-09-12T07:42:55;99818.16;;;55.72;15.17
9415;BME280;4746;35.664;139.738;2023-09-12T07:45:23;99826.28;;;55.26;15.51
9415;BME280;4746;35.664;139.738;2023-09-12T07:47:51;99821.31;;;54.89;15.73
9415;BME280;4746;35.664;139.738;2023-09-12T07:50:18;99820.88;;;54.63;15.96
9415;BME280;4746;35.664;139.738;2023-09-12T07:52:46;99824.00;;;54.41;16.32
9415;BME280;4746;35.664;139.738;2023-09-12T07:55:13;99828.56;;;53.28;17.77
9415;BME280;4746;35.664;139.738;2023-09-12T07:57:41;99823.81;;;51.45;18.42
9415;BME280;4746;35.664;139.738;2023-09-12T08:00:10;99827.78;;;49.78;20.22
9415;BME280;4746;35.664;139.738;2023-09-12T08:02:39;99825.41;;;48.26;21.75
9415;BME280;4746;35.664;139.738;2023-09-12T08:05:07;99826.03;;;46.90;22.58
9415;BME280;4746;35.664;139.738;2023-09-12T08:07:36;99827.56;;;45.72;24.37
9415;BME280;4746;35.664;139.738;2023-09-12T08:10:06;99820.31;;;44.74;25.35
9415;BME280;4746;35.664;139.738;2023-09-12T08:12:34;99828.47;;;43.91;26.41
9415;BME280;4746;35.664;139.738;2023-09-12T08:15:06;99838.59;;;43.12;27.25
9415;BME280;4746;35.664;139.738;2023-09-12T08:17:33;99838.50;;;42.39;28.32
9415;BME280;4746;35.664;139.738;2023-09-12T08:20:01;99843.63;;;41.73;29.37
9415;BME280;4746;35.664;139.738;2023-09-12T08:22:30;99842.72;;;41.18;30.31
9415;BME280;4746;35.664;139.738;2023-09-12T08:24:59;99845.06;;;40.71;31.01
9415;BME280;4746;35.664;139.738;2023-09-12T08:27:26;99844.53;;;40.33;31.19
9415;BME280;4746;35.664;139.738;2023-09-12T08:29:54;99843.66;;;39.89;31.76
9415;BME280;4746;35.664;139.738;2023-09-12T08:32:21;99857.59;;;39.48;32.84
9415;BME280;4746;35.664;139.738;2023-09-12T08:34:49;99860.75;;;39.06;33.72
9415;BME280;4746;35.664;139.738;2023-09-12T08:37:16;99852.25;;;38.65;34.19
9415;BME280;4746;35.664;139.738;2023-09-12T08:39:45;99854.88;;;38.34;35.00
9415;BME280;4746;35.664;139.738;2023-09-12T08:42:15;99846.06;;;38.10;35.61
9415;BME280;4746;35.664;139.738;2023-09-12T08:44:44;99851.81;;;37.83;35.74
9415;BME280;4746;35.664;139.738;2023-09-12T08:47:14;99848.13;;;37.60;36.17
9415;BME280;4746;35.664;139.738;2023-09-12T08:49:42;99855.34;;;37.36;36.66
9415;BME280;4746;35.664;139.738;2023-09-12T08:52:11;99859.44;;;37.23;36.95
9415;BME280;4746;35.664;139.738;2023-09-12T08:54:38;99862.13;;;37.07;37.71
9415;BME280;4746;35.664;139.738;2023-09-12T08:57:06;99853.09;;;36.92;37.63
9415;BME280;4746;35.664;139.738;2023-09-12T08:59:35;99854.31;;;36.72;37.99
9415;BME280;4746;35.664;139.738;2023-09-12T09:02:08;99862.81;;;36.60;38.25
9415;BME280;4746;35.664;139.738;2023-09-12T09:04:39;99866.88;;;36.38;38.79
9415;BME280;4746;35.664;139.738;2023-09-12T09:07:09;99876.09;;;36.18;39.58
9415;BME280;4746;35.664;139.738;2023-09-12T09:09:40;99871.28;;;35.97;39.90
9415;BME280;4746;35.664;139.738;2023-09-12T09:12:09;99876.16;;;35.84;39.59
9415;BME280;4746;35.664;139.738;2023-09-12T09:14:37;99875.44;;;35.74;40.20
9415;BME280;4746;35.664;139.738;2023-09-12T09:17:05;99874.53;;;35.65;40.85
9415;BME280;4746;35.664;139.738;2023-09-12T09:19:43;99892.00;;;35.60;40.37
9415;BME280;4746;35.664;139.738;2023-09-12T09:22:12;99889.63;;;35.39;41.53
9415;BME280;4746;35.664;139.738;2023-09-12T09:24:40;99887.34;;;35.27;41.47
9415;BME280;4746;35.664;139.738;2023-09-12T09:27:07;99883.59;;;35.20;41.66
9415;BME280;4746;35.664;139.738;2023-09-12T09:29:47;99891.13;;;35.42;41.65
9415;BME280;4746;35.664;139.738;2023-09-12T09:32:20;99893.75;;;35.34;41.67
9415;BME280;4746;35.664;139.738;2023-09-12T09:34:49;99895.63;;;35.24;42.08
9415;BME280;4746;35.664;139.738;2023-09-12T09:37:16;99908.56;;;35.19;42.41
9415;BME280;4746;35.664;139.738;2023-09-12T09:39:48;99915.81;;;35.09;42.81
9415;BME280;4746;35.664;139.738;2023-09-12T09:42:19;99925.72;;;34.90;42.69
9415;BME280;4746;35.664;139.738;2023-09-12T09:44:48;99921.59;;;34.78;43.46
9415;BME280;4746;35.664;139.738;2023-09-12T09:47:18;99927.94;;;34.67;43.63
9415;BME280;4746;35.664;139.738;2023-09-12T09:49:46;99924.50;;;34.58;44.10
9415;BME280;4746;35.664;139.738;2023-09-12T09:52:14;99934.00;;;34.51;43.89
9415;BME280;4746;35.664;139.738;2023-09-12T09:54:45;99949.75;;;34.44;43.60
9415;BME280;4746;35.664;139.738;2023-09-12T09:57:14;99959.88;;;34.31;43.94
9415;BME280;4746;35.664;139.738;2023-09-12T09:59:41;99961.84;;;34.20;43.87
9415;BME280;4746;35.664;139.738;2023-09-12T10:02:18;99971.81;;;34.18;43.61
9415;BME280;4746;35.664;139.738;2023-09-12T10:04:51;99975.03;;;34.02;44.43
9415;BME280;4746;35.664;139.738;2023-09-12T10:07:21;99976.41;;;33.97;44.23
9415;BME280;4746;35.664;139.738;2023-09-12T10:09:50;99977.84;;;33.91;44.74
9415;BME280;4746;35.664;139.738;2023-09-12T10:12:18;99993.25;;;33.88;44.47
9415;BME280;4746;35.664;139.738;2023-09-12T10:14:46;99981.63;;;33.89;45.11
9415;BME280;4746;35.664;139.738;2023-09-12T10:17:19;99999.13;;;33.91;44.49
9415;BME280;4746;35.664;139.738;2023-09-12T10:19:59;99999.78;;;33.84;44.46
9415;BME280;4746;35.664;139.738;2023-09-12T10:23:22;100010.03;;;33.79;44.57
9415;BME280;4746;35.664;139.738;2023-09-12T10:25:52;100001.34;;;33.68;45.57
9415;BME280;4746;35.664;139.738;2023-09-12T10:28:21;100024.72;;;33.64;45.49
9415;BME280;4746;35.664;139.738;2023-09-12T10:30:51;100016.97;;;33.42;45.94
9415;BME280;4746;35.664;139.738;2023-09-12T10:33:20;100022.13;;;33.34;46.57
9415;BME280;4746;35.664;139.738;2023-09-12T10:35:51;100025.47;;;33.27;46.15
9415;BME280;4746;35.664;139.738;2023-09-12T10:38:21;100022.50;;;33.20;46.97
9415;BME280;4746;35.664;139.738;2023-09-12T10:40:55;100017.91;;;33.22;47.12
9415;BME280;4746;35.664;139.738;2023-09-12T10:43:25;100028.13;;;33.27;46.94
9415;BME280;4746;35.664;139.738;2023-09-12T10:45:53;100034.41;;;33.26;46.85
9415;BME280;4746;35.664;139.738;2023-09-12T10:48:22;100046.59;;;33.28;46.74
9415;BME280;4746;35.664;139.738;2023-09-12T10:50:50;100049.63;;;33.24;47.14
9415;BME280;4746;35.664;139.738;2023-09-12T10:53:19;100047.13;;;33.22;46.97
9415;BME280;4746;35.664;139.738;2023-09-12T11:01:35;100071.28;;;33.10;47.73
9415;BME280;4746;35.664;139.738;2023-09-12T11:06:52;100065.47;;;32.96;48.00
9415;BME280;4746;35.664;139.738;2023-09-12T11:09:24;100064.91;;;33.02;47.64
9415;BME280;4746;35.664;139.738;2023-09-12T11:11:58;100061.06;;;33.06;48.10
9415;BME280;4746;35.664;139.738;2023-09-12T11:14:26;100067.19;;;33.06;47.56
9415;BME280;4746;35.664;139.738;2023-09-12T11:19:48;100059.53;;;33.13;47.13
9415;BME280;4746;35.664;139.738;2023-09-12T11:22:31;100074.47;;;33.14;47.33
9415;BME280;4746;35.664;139.738;2023-09-12T11:25:03;100087.31;;;33.09;47.75
9415;BME280;4746;35.664;139.738;2023-09-12T11:27:45;100083.69;;;33.10;47.78
9415;BME280;4746;35.664;139.738;2023-09-12T11:30:29;100092.44;;;33.01;48.30
9415;BME280;4746;35.664;139.738;2023-09-12T11:33:05;100084.88;;;32.96;48.26
9415;BME280;4746;35.664;139.738;2023-09-12T11:35:37;100090.44;;;32.93;48.32
9415;BME280;4746;35.664;139.738;2023-09-12T11:38:10;100093.91;;;32.84;48.36
9415;BME280;4746;35.664;139.738;2023-09-12T11:43:06;100098.56;;;32.71;48.48
9415;BME280;4746;35.664;139.738;2023-09-12T11:45:33;100102.84;;;32.63;48.55
9415;BME280;4746;35.664;139.738;2023-09-12T11:48:04;100090.69;;;32.60;48.36
9415;BME280;4746;35.664;139.738;2023-09-12T11:50:34;100087.31;;;32.58;48.76
9415;BME280;4746;35.664;139.738;2023-09-12T11:53:12;100094.81;;;32.74;48.83
9415;BME280;4746;35.664;139.738;2023-09-12T11:55:47;100096.81;;;32.81;48.06
9415;BME280;4746;35.664;139.738;2023-09-12T11:58:19;100117.50;;;32.78;48.34
9415;BME280;4746;35.664;139.738;2023-09-12T12:00:51;100095.41;;;32.57;48.94
9415;BME280;4746;35.664;139.738;2023-09-12T12:03:22;100098.00;;;32.68;48.50
9415;BME280;4746;35.664;139.738;2023-09-12T12:05:50;100107.63;;;32.69;48.47
9415;BME280;4746;35.664;139.738;2023-09-12T12:08:19;100110.28;;;32.69;48.29
9415;BME280;4746;35.664;139.738;2023-09-12T12:10:51;100102.09;;;32.72;48.11
9415;BME280;4746;35.664;139.738;2023-09-12T12:13:21;100111.97;;;32.70;48.23
9415;BME280;4746;35.664;139.738;2023-09-12T12:15:49;100109.84;;;32.64;48.52
9415;BME280;4746;35.664;139.738;2023-09-12T12:18:17;100106.47;;;32.62;48.54
9415;BME280;4746;35.664;139.738;2023-09-12T12:20:45;100101.88;;;32.64;48.47
9415;BME280;4746;35.664;139.738;2023-09-12T12:23:12;100094.63;;;32.66;48.40
9415;BME280;4746;35.664;139.738;2023-09-12T12:25:40;100097.75;;;32.71;48.46
9415;BME280;4746;35.664;139.738;2023-09-12T12:28:08;100090.75;;;32.70;47.94
9415;BME280;4746;35.664;139.738;2023-09-12T12:30:36;100105.72;;;32.71;47.68
9415;BME280;4746;35.664;139.738;2023-09-12T12:33:09;100097.34;;;32.75;47.35
9415;BME280;4746;35.664;139.738;2023-09-12T12:35:37;100091.56;;;32.70;47.17
9415;BME280;4746;35.664;139.738;2023-09-12T12:38:05;100099.38;;;32.62;46.87
9415;BME280;4746;35.664;139.738;2023-09-12T12:40:37;100090.03;;;32.68;46.69
9415;BME280;4746;35.664;139.738;2023-09-12T12:43:16;100097.00;;;32.48;47.38
9415;BME280;4746;35.664;139.738;2023-09-12T12:45:56;100101.72;;;32.45;47.22
9415;BME280;4746;35.664;139.738;2023-09-12T12:48:34;100099.16;;;32.54;46.98
9415;BME280;4746;35.664;139.738;2023-09-12T12:51:21;100095.69;;;32.54;46.87
9415;BME280;4746;35.664;139.738;2023-09-12T12:53:51;100093.88;;;32.43;47.10
9415;BME280;4746;35.664;139.738;2023-09-12T12:56:22;100092.06;;;32.44;47.08
9415;BME280;4746;35.664;139.738;2023-09-12T12:58:55;100086.66;;;32.45;47.08
9415;BME280;4746;35.664;139.738;2023-09-12T13:01:24;100087.75;;;32.43;46.83
9415;BME280;4746;35.664;139.738;2023-09-12T13:03:52;100088.00;;;32.40;46.74
9415;BME280;4746;35.664;139.738;2023-09-12T13:06:21;100089.69;;;32.41;46.70
9415;BME280;4746;35.664;139.738;2023-09-12T13:08:51;100087.75;;;32.43;46.94
9415;BME280;4746;35.664;139.738;2023-09-12T13:11:19;100092.19;;;32.42;47.04
9415;BME280;4746;35.664;139.738;2023-09-12T13:13:50;100091.09;;;32.45;46.79
9415;BME280;4746;35.664;139.738;2023-09-12T13:16:18;100090.28;;;32.44;47.22
9415;BME280;4746;35.664;139.738;2023-09-12T13:18:45;100095.31;;;32.47;47.07
9415;BME280;4746;35.664;139.738;2023-09-12T13:21:13;100087.25;;;32.49;47.42
9415;BME280;4746;35.664;139.738;2023-09-12T13:23:40;100094.31;;;32.59;46.97
9415;BME280;4746;35.664;139.738;2023-09-12T13:26:09;100085.97;;;32.64;46.46
9415;BME280;4746;35.664;139.738;2023-09-12T13:28:37;100093.25;;;32.51;46.89